KJAS/JAS METAR and TAF weather

Enter ICAO airport designator
Station Type Date Time Source
KJAS METAR 2021/07/28 03:35 UTC NOAA

KJAS 280335Z AUTO 15004KT 10SM FEW120 23/22 A3003 RMK AO2 LTG DSNT SW AND W


Station Type Date Time Source
KJAS Decoded METAR 2021/07/28 03:35 UTC NOAA

Jasper, Jasper County-Bell Field Airport, TX, United States (KJAS) 30-53-08N 094-02-05W
Jul 27, 2021 - 11:35 PM EDT / 2021.07.28 0335 UTC
Wind: from the SSE (150 degrees) at 5 MPH (4 KT):0
Visibility: 10 mile(s):0
Sky conditions: mostly clear
Weather: Lightning observed
Temperature: 73 F (23 C)
Dew Point: 71 F (22 C)
Relative Humidity: 94%
Pressure (altimeter): 30.03 in. Hg (1016 hPa)
ob: KJAS 280335Z AUTO 15004KT 10SM FEW120 23/22 A3003 RMK AO2 LTG DSNT SW AND W
cycle: 3

Station Type Date Time Source
KJAS TAF UTC NOAA

Error!

Example: see airport list